createdAt,value
2023-02-24T00:02:04.457Z,136.43
2023-02-24T00:04:34.872Z,121.77
2023-02-24T00:07:02.792Z,129.70
2023-02-24T00:09:31.392Z,114.70
2023-02-24T00:12:11.054Z,110.67
2023-02-24T00:14:39.853Z,116.90
2023-02-24T00:17:08.245Z,120.47
2023-02-24T00:19:36.731Z,113.27
2023-02-24T00:22:05.646Z,108.90
2023-02-24T00:24:32.843Z,110.80
2023-02-24T00:27:02.570Z,114.07
2023-02-24T00:29:32.424Z,104.63
2023-02-24T00:32:00.328Z,105.53
2023-02-24T00:34:32.036Z,104.77
2023-02-24T00:36:59.476Z,106.13
2023-02-24T00:39:30.613Z,101.57
2023-02-24T00:42:04.694Z,106.60
2023-02-24T00:44:45.716Z,106.27
2023-02-24T00:47:16.683Z,112.27
2023-02-24T00:49:43.796Z,109.50
2023-02-24T00:52:13.811Z,105.93
2023-02-24T00:54:45.126Z,107.60
2023-02-24T00:57:12.322Z,115.50
2023-02-24T00:59:39.596Z,112.00
2023-02-24T01:02:07.699Z,101.37
2023-02-24T01:04:37.455Z,109.80
2023-02-24T01:07:11.096Z,110.13
2023-02-24T01:09:39.764Z,103.07
2023-02-24T01:12:38.241Z,97.53
2023-02-24T01:15:08.991Z,106.70
2023-02-24T01:17:37.463Z,103.33
2023-02-24T01:20:16.079Z,100.00
2023-02-24T01:22:53.836Z,104.23
2023-02-24T01:25:21.232Z,99.77
2023-02-24T01:27:48.568Z,104.97
2023-02-24T01:30:18.672Z,104.33
2023-02-24T01:32:47.219Z,94.10
2023-02-24T01:35:15.062Z,105.23
2023-02-24T01:37:43.133Z,97.20
2023-02-24T01:40:18.571Z,97.60
2023-02-24T01:42:47.602Z,97.87
2023-02-24T01:45:21.307Z,90.00
2023-02-24T01:47:49.167Z,88.33
2023-02-24T01:50:21.556Z,93.77
2023-02-24T01:52:52.625Z,91.27
2023-02-24T01:55:28.947Z,92.23
2023-02-24T01:57:57.737Z,85.93
2023-02-24T02:00:37.188Z,88.53
2023-02-24T02:03:24.215Z,82.03
2023-02-24T02:05:53.125Z,76.70
2023-02-24T02:08:21.979Z,78.00
2023-02-24T02:10:48.867Z,85.87
2023-02-24T02:13:21.520Z,79.73
2023-02-24T02:16:09.656Z,76.87
2023-02-24T02:18:48.188Z,76.37
2023-02-24T02:21:56.479Z,72.60
2023-02-24T02:25:07.166Z,78.07
2023-02-24T02:28:04.226Z,72.73
2023-02-24T02:30:55.352Z,71.13
2023-02-24T02:33:44.154Z,81.27
2023-02-24T02:36:22.496Z,70.50
2023-02-24T02:39:06.229Z,81.83
2023-02-24T02:42:14.351Z,70.90
2023-02-24T02:45:06.375Z,79.97
2023-02-24T02:47:51.917Z,74.07
2023-02-24T02:50:35.884Z,76.43
2023-02-24T02:53:10.309Z,72.47
2023-02-24T02:55:50.570Z,76.97
2023-02-24T02:58:23.595Z,79.67
2023-02-24T03:01:01.608Z,74.70
2023-02-24T03:03:35.679Z,68.70
2023-02-24T03:06:07.906Z,72.17
2023-02-24T03:08:37.838Z,74.13
2023-02-24T03:11:11.479Z,71.43
2023-02-24T03:13:43.214Z,73.80
2023-02-24T03:16:12.520Z,70.47
2023-02-24T03:18:45.635Z,75.10
2023-02-24T03:21:20.027Z,73.40
2023-02-24T03:23:50.604Z,76.60
2023-02-24T03:26:21.644Z,82.47
2023-02-24T03:29:02.875Z,82.10
2023-02-24T03:31:54.412Z,72.80
2023-02-24T03:34:43.387Z,71.47
2023-02-24T03:37:10.420Z,76.47
2023-02-24T03:39:38.752Z,76.00
2023-02-24T03:42:18.179Z,77.60
2023-02-24T03:44:45.860Z,69.87
2023-02-24T03:47:16.275Z,75.47
2023-02-24T03:49:43.847Z,73.87
2023-02-24T03:52:22.792Z,73.17
2023-02-24T03:55:13.872Z,78.70
2023-02-24T03:58:09.213Z,76.37
2023-02-24T04:00:51.055Z,76.20
2023-02-24T04:03:25.520Z,71.20
2023-02-24T04:06:21.520Z,69.50
2023-02-24T04:08:55.154Z,77.80
2023-02-24T04:12:09.338Z,74.30
2023-02-24T04:14:51.273Z,69.20
2023-02-24T04:17:28.819Z,73.53
2023-02-24T04:20:01.009Z,71.17
2023-02-24T04:22:36.155Z,66.67
2023-02-24T04:25:06.292Z,72.40
2023-02-24T04:27:34.194Z,73.70
2023-02-24T04:30:13.199Z,71.67
2023-02-24T04:32:43.342Z,65.37
2023-02-24T04:35:15.473Z,68.57
2023-02-24T04:37:46.225Z,72.40
2023-02-24T04:40:17.571Z,73.57
2023-02-24T04:42:49.056Z,71.20
2023-02-24T04:45:25.528Z,70.50
2023-02-24T04:48:00.982Z,73.23
2023-02-24T04:50:34.368Z,69.73
2023-02-24T04:53:09.685Z,71.00
2023-02-24T04:55:42.816Z,75.70
2023-02-24T04:58:12.615Z,68.07
2023-02-24T05:00:41.897Z,71.63
2023-02-24T05:03:12.629Z,70.03
2023-02-24T05:05:42.851Z,77.70
2023-02-24T05:08:10.942Z,76.73
2023-02-24T05:10:46.584Z,80.87
2023-02-24T05:13:26.234Z,69.83
2023-02-24T05:15:57.594Z,67.13
2023-02-24T05:18:25.519Z,71.27
2023-02-24T05:21:13.383Z,71.30
2023-02-24T05:23:45.633Z,65.53
2023-02-24T05:26:16.874Z,68.23
2023-02-24T05:28:49.370Z,73.10
2023-02-24T05:31:20.157Z,69.03
2023-02-24T05:33:50.053Z,71.73
2023-02-24T05:36:18.832Z,69.27
2023-02-24T05:38:56.605Z,72.97
2023-02-24T05:41:35.884Z,76.37
2023-02-24T05:44:08.570Z,68.17
2023-02-24T05:46:39.218Z,71.90
2023-02-24T05:49:23.184Z,64.10
2023-02-24T05:51:55.417Z,74.73
2023-02-24T05:54:44.106Z,74.93
2023-02-24T05:57:15.367Z,72.97
2023-02-24T05:59:44.661Z,73.70
2023-02-24T06:02:14.891Z,73.57
2023-02-24T06:04:50.975Z,83.83
2023-02-24T06:07:22.679Z,74.77
2023-02-24T06:09:53.921Z,73.77
2023-02-24T06:12:25.684Z,76.27
2023-02-24T06:14:53.097Z,79.70
2023-02-24T06:17:23.001Z,78.80
2023-02-24T06:19:51.719Z,77.83
2023-02-24T06:22:20.792Z,81.50
2023-02-24T06:24:49.386Z,83.43
2023-02-24T06:27:19.231Z,73.37
2023-02-24T06:29:51.676Z,80.60
2023-02-24T06:32:21.551Z,80.87
2023-02-24T06:34:49.115Z,77.70
2023-02-24T06:37:16.555Z,80.83
2023-02-24T06:39:43.782Z,76.33
2023-02-24T06:42:12.217Z,81.83
2023-02-24T06:44:41.135Z,72.13
2023-02-24T06:47:12.993Z,68.73
2023-02-24T06:49:40.790Z,72.73
2023-02-24T06:52:08.798Z,65.33
2023-02-24T06:54:36.238Z,61.90
2023-02-24T06:57:04.105Z,60.57
2023-02-24T06:59:32.244Z,58.13
2023-02-24T07:02:01.929Z,47.10
2023-02-24T07:04:29.612Z,38.93
2023-02-24T07:07:02.893Z,33.40
2023-02-24T07:09:31.563Z,24.43
2023-02-24T07:11:59.424Z,27.93
2023-02-24T07:14:30.571Z,21.43
2023-02-24T07:16:58.510Z,25.03
2023-02-24T07:19:29.172Z,23.57
2023-02-24T07:22:00.332Z,25.37
2023-02-24T07:24:33.227Z,36.67
2023-02-24T07:27:07.696Z,32.00
2023-02-24T07:29:36.332Z,32.37
2023-02-24T07:32:06.055Z,31.13
2023-02-24T07:34:34.155Z,31.63
2023-02-24T07:37:07.883Z,29.73
2023-02-24T07:39:37.768Z,19.63
2023-02-24T07:42:05.599Z,20.17
2023-02-24T07:44:44.550Z,19.10
2023-02-24T07:47:11.394Z,18.67
2023-02-24T07:49:41.051Z,23.30
2023-02-24T07:52:08.422Z,25.50
2023-02-24T07:54:36.956Z,21.83
2023-02-24T07:57:05.440Z,31.00
2023-02-24T07:59:37.597Z,18.20
2023-02-24T08:02:07.690Z,19.57
2023-02-24T08:04:36.340Z,12.90
2023-02-24T08:07:04.225Z,14.47
2023-02-24T08:09:45.887Z,17.27
2023-02-24T08:12:22.412Z,24.23
2023-02-24T08:14:52.555Z,23.83
2023-02-24T08:17:22.167Z,21.20
2023-02-24T08:20:01.009Z,21.50
2023-02-24T08:22:35.939Z,25.40
2023-02-24T08:25:06.751Z,27.10
2023-02-24T08:27:42.178Z,30.67
2023-02-24T08:30:21.176Z,23.03
2023-02-24T08:32:52.588Z,23.00
2023-02-24T08:35:20.254Z,23.17
2023-02-24T08:37:52.668Z,29.07
2023-02-24T08:40:33.924Z,19.83
2023-02-24T08:43:19.640Z,25.70
2023-02-24T08:45:52.533Z,21.83
2023-02-24T08:48:37.703Z,16.53
2023-02-24T08:51:10.231Z,25.23
2023-02-24T08:53:40.433Z,18.47
2023-02-24T08:56:13.253Z,18.73
2023-02-24T08:58:49.396Z,15.70
2023-02-24T09:01:24.013Z,15.47
2023-02-24T09:03:59.252Z,25.17
2023-02-24T09:06:35.044Z,21.33
2023-02-24T09:09:20.630Z,20.40
2023-02-24T09:11:57.350Z,15.53
2023-02-24T09:14:37.328Z,17.77
2023-02-24T09:17:06.978Z,11.30
2023-02-24T09:19:45.997Z,20.27
2023-02-24T09:22:32.830Z,15.53
2023-02-24T09:25:18.087Z,13.67
2023-02-24T09:27:55.172Z,13.90
2023-02-24T09:30:37.930Z,15.33
2023-02-24T09:33:18.598Z,20.10
2023-02-24T09:35:51.102Z,22.73
2023-02-24T09:38:43.402Z,16.50
2023-02-24T09:41:34.120Z,16.70
2023-02-24T09:44:07.487Z,15.27
2023-02-24T09:46:42.378Z,14.60
2023-02-24T09:49:18.083Z,15.33
2023-02-24T09:51:45.331Z,19.30
2023-02-24T09:54:18.823Z,17.90
2023-02-24T09:57:08.276Z,17.63
2023-02-24T09:59:40.579Z,21.17
2023-02-24T10:02:44.076Z,17.67
2023-02-24T10:05:14.549Z,15.20
2023-02-24T10:07:43.928Z,16.17
2023-02-24T10:10:19.808Z,16.90
2023-02-24T10:12:54.391Z,24.87
2023-02-24T10:15:44.572Z,18.43
2023-02-24T10:18:37.458Z,18.77
2023-02-24T10:21:49.524Z,16.37
2023-02-24T10:24:29.348Z,28.27
2023-02-24T10:27:08.460Z,17.97
2023-02-24T10:29:50.876Z,16.13
2023-02-24T10:32:41.299Z,25.87
2023-02-24T10:35:17.999Z,30.00
2023-02-24T10:37:45.276Z,19.60
2023-02-24T10:40:17.780Z,22.00
2023-02-24T10:42:47.957Z,22.20
2023-02-24T10:45:23.837Z,16.77
2023-02-24T10:47:56.539Z,15.13
2023-02-24T10:50:34.891Z,13.60
2023-02-24T10:53:11.337Z,14.00
2023-02-24T10:55:45.652Z,13.37
2023-02-24T10:58:56.850Z,12.67
2023-02-24T11:01:49.324Z,13.63
2023-02-24T11:04:33.398Z,16.47
2023-02-24T11:07:43.827Z,17.27
2023-02-24T11:10:25.767Z,12.37
2023-02-24T11:13:15.336Z,10.13
2023-02-24T11:16:04.634Z,9.17
2023-02-24T11:18:32.569Z,12.80
2023-02-24T11:21:03.138Z,10.20
2023-02-24T11:23:40.356Z,16.50
2023-02-24T11:26:16.818Z,9.43
2023-02-24T11:28:59.597Z,11.90
2023-02-24T11:31:38.442Z,9.10
2023-02-24T11:34:24.868Z,10.17
2023-02-24T11:37:04.112Z,10.60
2023-02-24T11:39:33.819Z,17.77
2023-02-24T11:42:08.021Z,13.13
2023-02-24T11:44:52.846Z,10.87
2023-02-24T11:47:31.366Z,10.70
2023-02-24T11:50:28.596Z,13.33
2023-02-24T11:52:58.707Z,16.13
2023-02-24T11:55:38.829Z,13.80
2023-02-24T11:58:17.183Z,11.23
2023-02-24T12:00:55.547Z,8.97
2023-02-24T12:03:32.944Z,9.67
2023-02-24T12:06:12.555Z,11.57
2023-02-24T12:08:45.037Z,14.83
2023-02-24T12:11:33.626Z,18.63
2023-02-24T12:14:03.426Z,25.13
2023-02-24T12:16:35.659Z,20.73
2023-02-24T12:19:13.289Z,16.50
2023-02-24T12:21:44.495Z,23.70
2023-02-24T12:24:13.793Z,19.43
2023-02-24T12:27:14.688Z,18.20
2023-02-24T12:30:48.930Z,23.67
2023-02-24T12:33:42.858Z,24.73
2023-02-24T12:36:15.903Z,18.23
2023-02-24T12:38:49.352Z,23.73
2023-02-24T12:41:27.779Z,18.93
2023-02-24T12:44:23.602Z,16.63
2023-02-24T12:47:15.155Z,13.33
2023-02-24T12:49:47.428Z,21.97
2023-02-24T12:53:13.243Z,18.33
2023-02-24T12:55:55.395Z,17.43
2023-02-24T12:58:26.613Z,17.07
2023-02-24T13:01:05.686Z,15.20
2023-02-24T13:03:57.010Z,16.30
2023-02-24T13:06:54.125Z,14.80
2023-02-24T13:09:38.776Z,16.37
2023-02-24T13:12:15.744Z,14.70
2023-02-24T13:14:44.326Z,13.30
2023-02-24T13:17:11.167Z,11.00
2023-02-24T13:19:43.811Z,16.90
2023-02-24T13:22:13.604Z,13.07
2023-02-24T13:25:02.880Z,18.03
2023-02-24T13:27:36.217Z,15.70
2023-02-24T13:30:12.127Z,14.67
2023-02-24T13:32:41.917Z,13.17
2023-02-24T13:35:14.582Z,12.30
2023-02-24T13:37:43.771Z,10.73
2023-02-24T13:40:16.863Z,14.00
2023-02-24T13:42:57.100Z,9.53
2023-02-24T13:45:26.437Z,16.87
2023-02-24T13:48:18.388Z,11.43
2023-02-24T13:51:09.197Z,10.70
2023-02-24T13:53:42.063Z,11.07
2023-02-24T13:56:28.041Z,17.67
2023-02-24T13:59:11.330Z,16.13
2023-02-24T14:01:51.720Z,8.83
2023-02-24T14:04:24.606Z,16.40
2023-02-24T14:07:04.913Z,10.63
2023-02-24T14:09:35.170Z,12.17
2023-02-24T14:12:15.872Z,11.07
2023-02-24T14:14:47.209Z,8.63
2023-02-24T14:17:28.859Z,14.73
2023-02-24T14:20:35.468Z,11.67
2023-02-24T14:23:02.547Z,16.23
2023-02-24T14:25:35.942Z,11.47
2023-02-24T14:28:03.334Z,9.83
2023-02-24T14:30:35.401Z,10.93
2023-02-24T14:33:04.605Z,15.27
2023-02-24T14:35:45.462Z,14.60
2023-02-24T14:38:30.871Z,12.90
2023-02-24T14:40:58.229Z,13.33
2023-02-24T14:43:25.632Z,12.73
2023-02-24T14:45:53.374Z,10.87
2023-02-24T14:48:28.166Z,14.87
2023-02-24T14:51:01.619Z,11.27
2023-02-24T14:53:31.749Z,11.77
2023-02-24T14:56:01.574Z,14.53
2023-02-24T14:58:54.621Z,8.63
2023-02-24T15:01:44.012Z,11.47
2023-02-24T15:04:42.478Z,10.23
2023-02-24T15:07:23.768Z,10.57
2023-02-24T15:09:52.183Z,12.67
2023-02-24T15:12:18.927Z,6.50
2023-02-24T15:15:18.750Z,9.97
2023-02-24T15:17:47.693Z,13.63
2023-02-24T15:20:36.384Z,11.67
2023-02-24T15:23:04.079Z,18.13
2023-02-24T15:25:43.668Z,12.20
2023-02-24T15:28:31.086Z,15.60
2023-02-24T15:31:22.470Z,9.77
2023-02-24T15:34:00.007Z,11.90
2023-02-24T15:36:32.844Z,11.40
2023-02-24T15:39:10.347Z,16.10
2023-02-24T15:41:39.475Z,12.23
2023-02-24T15:44:06.777Z,14.90
2023-02-24T15:46:35.925Z,11.97
2023-02-24T15:49:05.519Z,10.93
2023-02-24T15:51:42.036Z,14.10
2023-02-24T15:54:14.905Z,9.33
2023-02-24T15:56:43.248Z,15.40
2023-02-24T15:59:14.816Z,11.47
2023-02-24T16:01:42.029Z,17.00
2023-02-24T16:04:11.806Z,11.80
2023-02-24T16:06:43.572Z,15.03
2023-02-24T16:09:17.737Z,9.63
2023-02-24T16:11:46.901Z,10.73
2023-02-24T16:14:16.867Z,12.30
2023-02-24T16:16:44.604Z,15.43
2023-02-24T16:19:14.644Z,12.03
2023-02-24T16:21:42.125Z,14.83
2023-02-24T16:24:08.976Z,10.83
2023-02-24T16:26:39.178Z,13.30
2023-02-24T16:29:11.759Z,18.53
2023-02-24T16:31:39.248Z,12.43
2023-02-24T16:34:07.194Z,15.03
2023-02-24T16:36:34.435Z,11.40
2023-02-24T16:39:01.300Z,14.57
2023-02-24T16:41:28.962Z,12.33
2023-02-24T16:43:55.844Z,9.93
2023-02-24T16:46:23.760Z,10.43
2023-02-24T16:48:53.443Z,13.07
2023-02-24T16:51:21.894Z,10.03
2023-02-24T16:53:48.793Z,9.10
2023-02-24T16:56:16.211Z,13.30
2023-02-24T16:58:42.976Z,9.17
2023-02-24T17:01:18.937Z,14.90
2023-02-24T17:03:48.756Z,12.93
2023-02-24T17:06:16.015Z,17.13
2023-02-24T17:08:44.293Z,14.13
2023-02-24T17:11:14.148Z,14.87
2023-02-24T17:13:41.127Z,13.57
2023-02-24T17:16:08.359Z,15.60
2023-02-24T17:18:35.586Z,13.40
2023-02-24T17:21:03.378Z,9.03
2023-02-24T17:23:30.148Z,15.43
2023-02-24T17:26:00.228Z,14.20
2023-02-24T17:28:27.582Z,20.40
2023-02-24T17:30:54.668Z,13.63
2023-02-24T17:33:21.737Z,15.60
2023-02-24T17:35:49.192Z,12.07
2023-02-24T17:38:18.670Z,14.20
2023-02-24T17:40:46.723Z,16.83
2023-02-24T17:43:13.559Z,13.73
2023-02-24T17:45:44.376Z,12.67
2023-02-24T17:48:12.697Z,12.77
2023-02-24T17:50:48.660Z,17.23
2023-02-24T17:53:15.683Z,16.07
2023-02-24T17:56:01.002Z,12.10
2023-02-24T17:58:28.615Z,14.97
2023-02-24T18:00:55.728Z,11.57
2023-02-24T18:03:22.634Z,11.53
2023-02-24T18:05:58.503Z,15.40
2023-02-24T18:08:25.233Z,16.27
2023-02-24T18:10:52.205Z,18.60
2023-02-24T18:13:18.940Z,15.20
2023-02-24T18:15:46.034Z,15.17
2023-02-24T18:18:12.862Z,17.93
2023-02-24T18:20:43.683Z,15.43
2023-02-24T18:23:11.489Z,17.07
2023-02-24T18:25:38.518Z,17.53
2023-02-24T18:28:05.542Z,16.40
2023-02-24T18:30:32.886Z,16.87
2023-02-24T18:32:59.824Z,16.23
2023-02-24T18:35:29.303Z,17.47
2023-02-24T18:37:59.017Z,18.40
2023-02-24T18:40:26.824Z,12.70
2023-02-24T18:42:53.628Z,21.37
2023-02-24T18:45:22.211Z,13.07
2023-02-24T18:47:51.589Z,13.27
2023-02-24T18:50:18.913Z,16.47
2023-02-24T18:52:45.649Z,18.23
2023-02-24T18:55:12.701Z,13.30
2023-02-24T18:57:40.319Z,17.90
2023-02-24T19:00:08.085Z,16.83
2023-02-24T19:02:34.927Z,15.13
2023-02-24T19:05:02.196Z,17.30
2023-02-24T19:07:29.157Z,15.63
2023-02-24T19:09:56.321Z,16.93
2023-02-24T19:12:24.149Z,17.50
2023-02-24T19:14:54.217Z,16.67
2023-02-24T19:17:21.521Z,17.63
2023-02-24T19:19:48.923Z,15.17
2023-02-24T19:22:15.747Z,19.63
2023-02-24T19:24:43.051Z,13.73
2023-02-24T19:27:09.951Z,17.87
2023-02-24T19:29:37.020Z,14.57
2023-02-24T19:32:03.971Z,17.50
2023-02-24T19:34:31.083Z,16.70
2023-02-24T19:36:57.835Z,17.57
2023-02-24T19:39:24.813Z,18.43
2023-02-24T19:41:53.208Z,18.27
2023-02-24T19:44:20.413Z,12.93
2023-02-24T19:46:47.554Z,18.37
2023-02-24T19:49:14.545Z,17.47
2023-02-24T19:51:41.292Z,16.17
2023-02-24T19:54:11.903Z,17.63
2023-02-24T19:56:38.761Z,16.93
2023-02-24T19:59:11.441Z,18.90
2023-02-24T20:01:38.391Z,16.93
2023-02-24T20:04:05.852Z,15.97
2023-02-24T20:06:38.753Z,17.33
2023-02-24T20:09:09.370Z,19.33
2023-02-24T20:11:39.858Z,15.53
2023-02-24T20:14:08.522Z,19.93
2023-02-24T20:16:37.517Z,16.30
2023-02-24T20:19:06.063Z,15.40
2023-02-24T20:21:33.778Z,14.97
2023-02-24T20:24:05.724Z,14.80
2023-02-24T20:26:32.907Z,13.07
2023-02-24T20:29:00.550Z,18.83
2023-02-24T20:31:28.006Z,11.40
2023-02-24T20:33:56.413Z,9.60
2023-02-24T20:36:26.510Z,9.13
2023-02-24T20:38:54.776Z,13.80
2023-02-24T20:41:23.581Z,10.03
2023-02-24T20:43:50.947Z,8.83
2023-02-24T20:46:19.178Z,7.33
2023-02-24T20:48:46.187Z,9.13
2023-02-24T20:51:13.322Z,7.97
2023-02-24T20:53:56.164Z,7.43
2023-02-24T20:56:29.606Z,7.63
2023-02-24T20:59:00.873Z,8.00
2023-02-24T21:01:29.244Z,8.03
2023-02-24T21:03:56.743Z,9.93
2023-02-24T21:06:24.355Z,7.83
2023-02-24T21:08:53.220Z,6.57
2023-02-24T21:11:21.107Z,8.30
2023-02-24T21:13:49.988Z,11.87
2023-02-24T21:16:19.388Z,6.07
2023-02-24T21:18:48.297Z,9.07
2023-02-24T21:21:16.757Z,7.20
2023-02-24T21:23:44.372Z,4.27
2023-02-24T21:26:12.084Z,8.10
2023-02-24T21:28:40.395Z,9.53
2023-02-24T21:31:12.019Z,10.43
2023-02-24T21:33:39.152Z,7.20
2023-02-24T21:36:09.276Z,7.13
2023-02-24T21:38:37.299Z,6.17
2023-02-24T21:41:09.534Z,6.57
2023-02-24T21:43:37.805Z,7.40
2023-02-24T21:46:06.427Z,6.23
2023-02-24T21:48:33.839Z,8.87
2023-02-24T21:51:03.913Z,7.17
2023-02-24T21:53:35.663Z,9.87
2023-02-24T21:56:16.389Z,6.70
2023-02-24T21:58:50.304Z,10.37
2023-02-24T22:01:23.189Z,7.97
2023-02-24T22:03:54.382Z,8.80
2023-02-24T22:06:22.378Z,11.40
2023-02-24T22:08:49.752Z,7.60
2023-02-24T22:11:18.785Z,9.13
2023-02-24T22:13:46.728Z,7.57
2023-02-24T22:16:19.689Z,5.27
2023-02-24T22:18:47.998Z,7.80
2023-02-24T22:21:18.732Z,11.50
2023-02-24T22:23:47.636Z,8.27
2023-02-24T22:26:15.537Z,8.20
2023-02-24T22:28:44.709Z,9.17
2023-02-24T22:31:13.602Z,11.07
2023-02-24T22:33:42.549Z,8.40
2023-02-24T22:36:21.373Z,10.63
2023-02-24T22:38:49.234Z,7.50
2023-02-24T22:41:19.102Z,7.93
2023-02-24T22:43:46.859Z,9.17
2023-02-24T22:46:16.166Z,9.57
2023-02-24T22:48:44.271Z,10.33
2023-02-24T22:51:13.272Z,10.17
2023-02-24T22:53:43.071Z,13.07
2023-02-24T22:56:14.664Z,9.63
2023-02-24T22:58:41.973Z,10.53
2023-02-24T23:01:17.953Z,10.00
2023-02-24T23:03:46.169Z,12.93
2023-02-24T23:06:16.081Z,12.07
2023-02-24T23:08:45.897Z,9.87
2023-02-24T23:11:29.491Z,10.73
2023-02-24T23:13:58.904Z,10.47
2023-02-24T23:16:31.902Z,12.37
2023-02-24T23:19:01.899Z,11.90
2023-02-24T23:21:37.782Z,10.73
2023-02-24T23:24:06.418Z,13.03
2023-02-24T23:26:38.623Z,13.27
2023-02-24T23:29:06.265Z,11.17
2023-02-24T23:31:33.573Z,14.43
2023-02-24T23:34:01.626Z,12.13
2023-02-24T23:36:28.543Z,11.83
2023-02-24T23:38:56.593Z,13.97
2023-02-24T23:41:23.289Z,11.13
2023-02-24T23:43:50.407Z,9.70
2023-02-24T23:46:17.277Z,12.53
2023-02-24T23:48:44.316Z,12.20
2023-02-24T23:51:13.816Z,13.43
2023-02-24T23:53:42.939Z,11.77
2023-02-24T23:56:30.142Z,11.73
2023-02-24T23:58:58.892Z,13.23
